createdAt,value
2022-08-05T00:01:27.945Z,1.40
2022-08-05T00:03:56.935Z,1.50
2022-08-05T00:06:29.103Z,1.80
2022-08-05T00:09:00.425Z,1.53
2022-08-05T00:11:30.362Z,1.40
2022-08-05T00:14:02.364Z,1.50
2022-08-05T00:16:52.651Z,1.40
2022-08-05T00:19:23.484Z,1.47
2022-08-05T00:21:51.693Z,1.40
2022-08-05T00:24:24.809Z,1.60
2022-08-05T00:26:57.500Z,1.40
2022-08-05T00:29:25.961Z,1.40
2022-08-05T00:32:12.937Z,1.30
2022-08-05T00:34:55.375Z,1.40
2022-08-05T00:37:35.791Z,1.70
2022-08-05T00:40:18.002Z,1.33
2022-08-05T00:42:55.844Z,1.33
2022-08-05T00:45:25.002Z,1.50
2022-08-05T00:48:05.574Z,1.33
2022-08-05T00:50:32.721Z,1.40
2022-08-05T00:52:59.253Z,1.47
2022-08-05T00:55:34.158Z,1.50
2022-08-05T00:58:11.106Z,1.20
2022-08-05T01:00:38.222Z,1.60
2022-08-05T01:03:07.796Z,1.50
2022-08-05T01:05:34.730Z,1.60
2022-08-05T01:08:30.267Z,1.67
2022-08-05T01:10:56.238Z,1.67
2022-08-05T01:13:59.160Z,1.50
2022-08-05T01:16:26.954Z,1.40
2022-08-05T01:18:56.757Z,1.60
2022-08-05T01:21:50.632Z,1.57
2022-08-05T01:24:40.525Z,1.50
2022-08-05T01:27:50.613Z,1.60
2022-08-05T01:30:33.742Z,1.50
2022-08-05T01:33:00.970Z,1.60
2022-08-05T01:35:51.988Z,1.40
2022-08-05T01:38:27.609Z,1.60
2022-08-05T01:40:58.242Z,1.50
2022-08-05T01:43:24.919Z,1.30
2022-08-05T01:45:56.679Z,1.57
2022-08-05T01:48:25.212Z,1.53
2022-08-05T01:50:51.799Z,1.60
2022-08-05T01:53:42.202Z,1.60
2022-08-05T01:56:05.858Z,1.70
2022-08-05T01:58:40.691Z,1.30
2022-08-05T02:01:11.899Z,1.50
2022-08-05T02:03:39.870Z,1.50
2022-08-05T02:06:23.905Z,1.43
2022-08-05T02:08:58.425Z,1.57
2022-08-05T02:11:33.659Z,1.40
2022-08-05T02:14:04.835Z,1.60
2022-08-05T02:16:52.785Z,1.50
2022-08-05T02:19:28.556Z,1.70
2022-08-05T02:22:17.493Z,1.50
2022-08-05T02:24:56.150Z,1.40
2022-08-05T02:27:30.135Z,1.40
2022-08-05T02:30:10.530Z,1.53
2022-08-05T02:32:37.164Z,1.30
2022-08-05T02:35:13.606Z,1.63
2022-08-05T02:37:41.864Z,1.70
2022-08-05T02:40:09.608Z,1.53
2022-08-05T02:42:36.858Z,1.50
2022-08-05T02:45:03.833Z,1.60
2022-08-05T02:47:58.450Z,1.60
2022-08-05T02:50:18.171Z,1.43
2022-08-05T02:52:44.818Z,1.60
2022-08-05T02:55:12.386Z,1.60
2022-08-05T02:58:10.736Z,1.50
2022-08-05T03:00:27.004Z,1.70
2022-08-05T03:02:53.636Z,1.50
2022-08-05T03:05:21.765Z,1.50
2022-08-05T03:08:09.399Z,1.50
2022-08-05T03:10:36.179Z,1.40
2022-08-05T03:15:28.373Z,1.57
2022-08-05T03:17:57.596Z,1.53
2022-08-05T03:20:24.882Z,1.50
2022-08-05T03:22:52.336Z,1.43
2022-08-05T03:25:33.938Z,2.53
2022-08-05T03:28:07.171Z,2.80
2022-08-05T03:30:35.194Z,2.70
2022-08-05T03:33:02.169Z,2.97
2022-08-05T03:35:28.975Z,2.40
2022-08-05T03:38:01.281Z,2.50
2022-08-05T03:40:32.232Z,2.60
2022-08-05T03:43:15.762Z,2.87
2022-08-05T03:45:58.239Z,2.57
2022-08-05T03:48:29.521Z,2.83
2022-08-05T03:52:50.202Z,3.00
2022-08-05T03:55:53.790Z,2.80
2022-08-05T03:57:16.361Z,2.70
2022-08-05T03:59:54.958Z,2.90
2022-08-05T04:02:37.396Z,3.40
2022-08-05T04:05:05.140Z,3.30
2022-08-05T04:07:36.399Z,3.77
2022-08-05T04:10:22.933Z,4.00
2022-08-05T04:12:49.456Z,4.00
2022-08-05T04:15:16.847Z,4.43
2022-08-05T04:17:57.235Z,4.10
2022-08-05T04:20:26.586Z,4.10
2022-08-05T04:22:53.144Z,4.90
2022-08-05T04:25:19.877Z,4.60
2022-08-05T04:28:11.383Z,4.10
2022-08-05T04:30:39.381Z,4.20
2022-08-05T04:33:06.311Z,3.70
2022-08-05T04:36:16.764Z,4.00
2022-08-05T04:38:20.681Z,4.30
2022-08-05T04:40:50.607Z,3.83
2022-08-05T04:43:17.611Z,3.80
2022-08-05T04:45:54.864Z,3.80
2022-08-05T04:48:27.922Z,3.93
2022-08-05T04:51:01.732Z,3.50
2022-08-05T04:53:33.586Z,4.13
2022-08-05T04:56:32.234Z,3.87
2022-08-05T04:58:49.258Z,3.73
2022-08-05T05:01:15.861Z,4.20
2022-08-05T05:04:02.346Z,4.20
2022-08-05T05:06:40.090Z,4.10
2022-08-05T05:09:17.331Z,4.40
2022-08-05T05:11:52.947Z,4.10
2022-08-05T05:14:31.262Z,4.13
2022-08-05T05:16:59.744Z,4.30
2022-08-05T05:19:27.392Z,4.07
2022-08-05T05:22:03.632Z,4.47
2022-08-05T05:24:56.886Z,4.17
2022-08-05T05:27:44.615Z,4.50
2022-08-05T05:30:31.143Z,4.30
2022-08-05T05:33:03.556Z,4.17
2022-08-05T05:35:40.463Z,3.57
2022-08-05T05:38:13.194Z,3.13
2022-08-05T05:40:48.352Z,3.17
2022-08-05T05:43:21.897Z,3.13
2022-08-05T05:46:05.475Z,3.30
2022-08-05T05:48:37.421Z,3.33
2022-08-05T05:51:14.929Z,3.30
2022-08-05T05:53:54.174Z,3.40
2022-08-05T05:56:26.048Z,3.67
2022-08-05T05:59:03.517Z,3.63
2022-08-05T06:01:37.688Z,3.80
2022-08-05T06:04:06.917Z,3.83
2022-08-05T06:06:34.888Z,3.77
2022-08-05T06:09:02.160Z,3.50
2022-08-05T06:11:30.698Z,3.53
2022-08-05T06:13:57.296Z,3.73
2022-08-05T06:16:28.841Z,3.57
2022-08-05T06:19:00.779Z,3.93
2022-08-05T06:21:35.687Z,3.93
2022-08-05T06:24:03.215Z,3.70
2022-08-05T06:26:33.812Z,3.70
2022-08-05T06:29:00.599Z,3.77
2022-08-05T06:31:32.009Z,3.77
2022-08-05T06:34:07.002Z,4.00
2022-08-05T06:36:37.348Z,3.67
2022-08-05T06:39:21.760Z,3.47
2022-08-05T06:41:49.725Z,4.00
2022-08-05T06:44:18.776Z,3.70
2022-08-05T06:46:50.726Z,3.67
2022-08-05T06:49:18.980Z,3.40
2022-08-05T06:51:48.277Z,3.43
2022-08-05T06:54:18.988Z,4.07
2022-08-05T06:56:54.950Z,3.80
2022-08-05T06:59:38.530Z,3.73
2022-08-05T07:02:05.465Z,3.60
2022-08-05T07:04:32.011Z,3.33
2022-08-05T07:06:59.707Z,3.70
2022-08-05T07:09:26.288Z,3.73
2022-08-05T07:12:00.502Z,3.57
2022-08-05T07:14:45.963Z,3.50
2022-08-05T07:18:01.237Z,3.47
2022-08-05T07:22:47.818Z,3.30
2022-08-05T07:25:54.018Z,3.37
2022-08-05T07:28:05.895Z,3.53
2022-08-05T07:30:38.832Z,3.03
2022-08-05T07:33:09.313Z,3.30
2022-08-05T07:36:03.139Z,3.20
2022-08-05T07:38:33.055Z,3.27
2022-08-05T07:41:16.841Z,3.53
2022-08-05T07:43:48.280Z,4.00
2022-08-05T07:46:24.749Z,3.80
2022-08-05T07:49:01.587Z,3.90
2022-08-05T07:51:37.098Z,3.77
2022-08-05T07:54:08.319Z,3.43
2022-08-05T07:57:00.667Z,3.40
2022-08-05T07:59:23.367Z,3.50
2022-08-05T08:02:07.158Z,3.30
2022-08-05T08:04:42.097Z,3.80
2022-08-05T08:07:11.441Z,3.67
2022-08-05T08:09:38.564Z,3.50
2022-08-05T08:12:14.034Z,3.30
2022-08-05T08:14:46.680Z,3.37
2022-08-05T08:17:15.981Z,3.50
2022-08-05T08:20:23.059Z,3.27
2022-08-05T08:22:30.054Z,3.50
2022-08-05T08:24:56.580Z,3.57
2022-08-05T08:27:39.854Z,3.50
2022-08-05T08:30:20.160Z,3.57
2022-08-05T08:32:58.195Z,3.50
2022-08-05T08:35:35.075Z,3.40
2022-08-05T08:38:07.432Z,3.47
2022-08-05T08:40:35.147Z,3.50
2022-08-05T08:45:17.065Z,3.33
2022-08-05T08:45:49.999Z,3.17
2022-08-05T08:48:41.389Z,3.10
2022-08-05T08:52:02.400Z,3.40
2022-08-05T08:53:50.190Z,3.07
2022-08-05T08:56:19.363Z,3.53
2022-08-05T08:58:48.899Z,3.13
2022-08-05T09:01:18.056Z,3.60
2022-08-05T09:03:57.337Z,3.27
2022-08-05T09:06:30.516Z,3.10
2022-08-05T09:09:01.384Z,3.10
2022-08-05T09:11:51.229Z,3.13
2022-08-05T09:14:57.859Z,2.83
2022-08-05T09:17:02.141Z,3.10
2022-08-05T09:19:36.727Z,3.47
2022-08-05T09:22:22.192Z,2.80
2022-08-05T09:25:01.247Z,3.00
2022-08-05T09:28:04.147Z,2.97
2022-08-05T09:30:23.439Z,3.07
2022-08-05T09:32:51.414Z,3.13
2022-08-05T09:35:26.747Z,2.97
2022-08-05T09:38:16.164Z,3.10
2022-08-05T09:40:52.612Z,2.90
2022-08-05T09:43:28.265Z,2.60
2022-08-05T09:46:11.998Z,2.67
2022-08-05T09:48:42.071Z,2.83
2022-08-05T09:51:38.241Z,3.10
2022-08-05T09:54:11.404Z,2.97
2022-08-05T09:56:38.617Z,3.00
2022-08-05T09:59:06.932Z,2.97
2022-08-05T10:01:34.343Z,3.00
2022-08-05T10:04:28.513Z,2.67
2022-08-05T10:06:59.374Z,2.70
2022-08-05T10:09:28.239Z,2.93
2022-08-05T10:12:31.129Z,2.90
2022-08-05T10:14:54.737Z,2.80
2022-08-05T10:17:37.379Z,2.83
2022-08-05T10:20:09.690Z,2.80
2022-08-05T10:22:37.986Z,3.17
2022-08-05T10:25:09.620Z,3.10
2022-08-05T10:28:09.633Z,3.17
2022-08-05T10:32:48.752Z,3.00
2022-08-05T10:33:14.690Z,2.83
2022-08-05T10:35:44.253Z,2.77
2022-08-05T10:38:11.748Z,3.17
2022-08-05T10:40:45.084Z,2.90
2022-08-05T10:43:36.528Z,2.70
2022-08-05T10:46:06.747Z,3.10
2022-08-05T10:48:52.315Z,3.10
2022-08-05T10:51:23.100Z,2.87
2022-08-05T10:54:01.885Z,2.80
2022-08-05T10:56:52.858Z,3.10
2022-08-05T11:00:02.219Z,3.00
2022-08-05T11:02:34.790Z,2.80
2022-08-05T11:05:06.103Z,3.00
2022-08-05T11:08:02.619Z,3.00
2022-08-05T11:10:22.577Z,2.87
2022-08-05T11:12:55.207Z,3.10
2022-08-05T11:16:00.642Z,3.57
2022-08-05T11:18:15.043Z,2.97
2022-08-05T11:20:45.086Z,2.87
2022-08-05T11:23:33.312Z,2.97
2022-08-05T11:26:28.563Z,3.10
2022-08-05T11:28:57.029Z,3.40
2022-08-05T11:31:54.193Z,3.67
2022-08-05T11:34:36.225Z,3.37
2022-08-05T11:37:02.829Z,3.23
2022-08-05T11:40:00.741Z,3.60
2022-08-05T11:42:29.935Z,3.70
2022-08-05T11:45:02.408Z,3.90
2022-08-05T11:47:49.896Z,3.50
2022-08-05T11:50:16.737Z,4.03
2022-08-05T11:52:46.149Z,3.93
2022-08-05T11:55:16.209Z,3.80
2022-08-05T11:58:10.481Z,4.20
2022-08-05T12:00:38.381Z,4.03
2022-08-05T12:03:28.764Z,4.23
2022-08-05T12:06:06.160Z,4.73
2022-08-05T12:08:49.734Z,4.43
2022-08-05T12:11:21.998Z,5.03
2022-08-05T12:14:04.016Z,5.27
2022-08-05T12:16:38.726Z,5.13
2022-08-05T12:19:06.022Z,5.10
2022-08-05T12:21:39.382Z,4.97
2022-08-05T12:24:10.597Z,5.50
2022-08-05T12:26:53.528Z,4.70
2022-08-05T12:29:24.005Z,5.67
2022-08-05T12:31:53.650Z,5.30
2022-08-05T12:34:23.751Z,5.97
2022-08-05T12:36:53.190Z,5.10
2022-08-05T12:39:19.793Z,5.43
2022-08-05T12:41:46.381Z,5.50
2022-08-05T12:44:28.542Z,5.60
2022-08-05T12:47:00.083Z,5.67
2022-08-05T12:50:04.036Z,5.50
2022-08-05T12:52:29.540Z,5.70
2022-08-05T12:55:02.205Z,5.30
2022-08-05T12:57:28.741Z,5.77
2022-08-05T13:02:00.180Z,5.90
2022-08-05T13:03:12.084Z,6.10
2022-08-05T13:05:40.232Z,5.67
2022-08-05T13:08:08.911Z,5.60
2022-08-05T13:10:50.389Z,5.30
2022-08-05T13:14:06.602Z,5.83
2022-08-05T13:16:12.327Z,5.97
2022-08-05T13:18:55.265Z,5.97
2022-08-05T13:21:27.838Z,6.20
2022-08-05T13:23:55.415Z,6.40
2022-08-05T13:26:29.894Z,6.73
2022-08-05T13:28:57.130Z,6.47
2022-08-05T13:31:34.103Z,6.83
2022-08-05T13:34:21.829Z,6.43
2022-08-05T13:36:51.969Z,6.33
2022-08-05T13:39:24.681Z,6.30
2022-08-05T13:42:05.232Z,6.90
2022-08-05T13:44:32.517Z,6.63
2022-08-05T13:47:02.408Z,6.60
2022-08-05T13:49:35.325Z,6.67
2022-08-05T13:52:29.059Z,6.30
2022-08-05T13:54:56.353Z,6.73
2022-08-05T13:57:23.229Z,7.07
2022-08-05T13:59:57.388Z,6.77
2022-08-05T14:02:26.561Z,6.57
2022-08-05T14:05:12.007Z,6.20
2022-08-05T14:08:00.328Z,7.37
2022-08-05T14:10:30.963Z,7.27
2022-08-05T14:12:58.255Z,7.03
2022-08-05T14:16:07.974Z,6.50
2022-08-05T14:18:14.680Z,6.47
2022-08-05T14:20:46.922Z,6.73
2022-08-05T14:23:14.766Z,7.17
2022-08-05T14:25:53.780Z,6.27
2022-08-05T14:28:26.493Z,7.27
2022-08-05T14:30:54.583Z,6.03
2022-08-05T14:33:22.699Z,7.80
2022-08-05T14:35:51.569Z,8.70
2022-08-05T14:38:33.333Z,8.67
2022-08-05T14:41:07.439Z,9.27
2022-08-05T14:44:01.999Z,9.73
2022-08-05T14:46:28.510Z,10.00
2022-08-05T14:48:56.544Z,9.33
2022-08-05T14:51:23.770Z,8.93
2022-08-05T14:54:26.390Z,8.60
2022-08-05T14:56:37.940Z,8.17
2022-08-05T14:59:04.717Z,8.13
2022-08-05T15:01:49.034Z,7.93
2022-08-05T15:04:20.691Z,7.00
2022-08-05T15:06:52.168Z,7.73
2022-08-05T15:09:52.258Z,7.40
2022-08-05T15:12:09.463Z,7.17
2022-08-05T15:14:48.197Z,8.20
2022-08-05T15:17:46.749Z,7.23
2022-08-05T15:20:03.787Z,7.03
2022-08-05T15:22:30.335Z,7.50
2022-08-05T15:24:58.970Z,7.00
2022-08-05T15:27:26.025Z,7.10
2022-08-05T15:29:54.204Z,7.00
2022-08-05T15:32:27.378Z,6.90
2022-08-05T15:34:55.765Z,6.33
2022-08-05T15:38:08.474Z,5.80
2022-08-05T15:41:00.500Z,5.83
2022-08-05T15:43:07.906Z,5.50
2022-08-05T15:45:42.992Z,5.87
2022-08-05T15:48:14.104Z,5.70
2022-08-05T15:50:41.341Z,5.57
2022-08-05T15:53:10.778Z,5.30
2022-08-05T15:56:03.111Z,5.33
2022-08-05T15:58:26.343Z,4.93
2022-08-05T16:01:04.461Z,5.07
2022-08-05T16:03:40.796Z,5.20
2022-08-05T16:06:08.310Z,5.53
2022-08-05T16:08:38.108Z,5.37
2022-08-05T16:11:05.018Z,4.67
2022-08-05T16:13:32.048Z,5.20
2022-08-05T16:16:01.325Z,5.60
2022-08-05T16:18:30.314Z,5.07
2022-08-05T16:20:57.461Z,5.10
2022-08-05T16:23:24.199Z,5.27
2022-08-05T16:25:55.751Z,4.60
2022-08-05T16:28:24.241Z,4.93
2022-08-05T16:30:52.082Z,4.83
2022-08-05T16:33:19.472Z,4.87
2022-08-05T16:35:49.916Z,4.57
2022-08-05T16:38:25.248Z,4.70
2022-08-05T16:40:59.620Z,4.77
2022-08-05T16:43:31.425Z,4.87
2022-08-05T16:46:03.964Z,4.30
2022-08-05T16:48:35.586Z,4.70
2022-08-05T16:51:02.356Z,4.30
2022-08-05T16:54:05.302Z,4.77
2022-08-05T16:56:21.893Z,4.43
2022-08-05T16:58:49.999Z,4.67
2022-08-05T17:01:16.640Z,3.63
2022-08-05T17:03:45.463Z,4.37
2022-08-05T17:06:12.093Z,4.57
2022-08-05T17:08:53.495Z,4.40
2022-08-05T17:11:25.316Z,4.30
2022-08-05T17:14:00.601Z,4.53
2022-08-05T17:16:36.505Z,3.83
2022-08-05T17:19:07.278Z,4.40
2022-08-05T17:21:36.925Z,4.10
2022-08-05T17:24:19.736Z,4.30
2022-08-05T17:26:55.673Z,4.63
2022-08-05T17:29:33.375Z,5.07
2022-08-05T17:32:06.712Z,3.97
2022-08-05T17:34:35.095Z,4.13
2022-08-05T17:37:01.619Z,4.40
2022-08-05T17:39:33.902Z,3.90
2022-08-05T17:42:18.568Z,4.13
2022-08-05T17:44:50.074Z,4.00
2022-08-05T17:47:18.663Z,4.00
2022-08-05T17:49:59.900Z,4.07
2022-08-05T17:52:31.428Z,4.30
2022-08-05T17:54:58.022Z,3.93
2022-08-05T17:57:24.706Z,4.20
2022-08-05T18:00:03.573Z,4.17
2022-08-05T18:02:31.641Z,4.30
2022-08-05T18:04:58.898Z,4.00
2022-08-05T18:07:40.908Z,4.20
2022-08-05T18:10:09.765Z,3.83
2022-08-05T18:12:37.164Z,4.00
2022-08-05T18:15:04.835Z,3.77
2022-08-05T18:17:59.025Z,3.90
2022-08-05T18:20:19.432Z,3.67
2022-08-05T18:22:57.361Z,3.70
2022-08-05T18:25:25.134Z,3.90
2022-08-05T18:27:52.227Z,4.00
2022-08-05T18:30:19.472Z,3.60
2022-08-05T18:32:53.599Z,3.50
2022-08-05T18:35:49.665Z,3.70
2022-08-05T18:38:18.945Z,3.50
2022-08-05T18:41:55.434Z,4.27
2022-08-05T18:43:38.355Z,3.90
2022-08-05T18:46:10.209Z,3.73
2022-08-05T18:48:41.762Z,3.83
2022-08-05T18:52:06.302Z,3.67
2022-08-05T18:54:14.036Z,3.90
2022-08-05T18:56:40.608Z,3.73
2022-08-05T18:59:42.144Z,3.60
2022-08-05T19:01:58.172Z,3.83
2022-08-05T19:04:25.674Z,3.87
2022-08-05T19:06:53.806Z,3.60
2022-08-05T19:09:21.278Z,3.60
2022-08-05T19:12:00.628Z,4.03
2022-08-05T19:14:53.518Z,3.73
2022-08-05T19:17:15.960Z,3.20
2022-08-05T19:19:46.431Z,3.33
2022-08-05T19:22:17.294Z,3.53
2022-08-05T19:24:56.065Z,3.47
2022-08-05T19:27:24.029Z,3.70
2022-08-05T19:29:56.455Z,3.67
2022-08-05T19:32:23.566Z,3.50
2022-08-05T19:34:54.500Z,3.27
2022-08-05T19:37:22.091Z,3.47
2022-08-05T19:39:58.110Z,3.10
2022-08-05T19:42:35.340Z,3.47
2022-08-05T19:45:02.572Z,3.20
2022-08-05T19:47:32.303Z,3.57
2022-08-05T19:50:01.091Z,3.30
2022-08-05T19:52:31.604Z,3.53
2022-08-05T19:55:00.636Z,3.63
2022-08-05T19:57:48.937Z,3.27
2022-08-05T20:00:20.654Z,3.27
2022-08-05T20:02:47.440Z,3.23
2022-08-05T20:05:16.686Z,3.40
2022-08-05T20:07:55.024Z,3.30
2022-08-05T20:10:24.970Z,3.50
2022-08-05T20:12:51.616Z,3.10
2022-08-05T20:15:48.691Z,3.27
2022-08-05T20:18:10.075Z,3.30
2022-08-05T20:20:55.100Z,3.20
2022-08-05T20:23:22.779Z,3.13
2022-08-05T20:25:49.365Z,3.50
2022-08-05T20:28:18.940Z,3.43
2022-08-05T20:30:45.524Z,3.00
2022-08-05T20:33:14.420Z,3.27
2022-08-05T20:35:45.470Z,3.23
2022-08-05T20:38:20.187Z,3.33
2022-08-05T20:40:53.964Z,3.23
2022-08-05T20:43:33.359Z,2.93
2022-08-05T20:46:10.149Z,3.30
2022-08-05T20:48:39.107Z,3.00
2022-08-05T20:51:08.798Z,3.37
2022-08-05T20:53:36.800Z,3.20
2022-08-05T20:56:09.504Z,3.30
2022-08-05T20:58:36.954Z,3.30
2022-08-05T21:01:04.020Z,3.13
2022-08-05T21:03:34.630Z,3.20
2022-08-05T21:06:01.800Z,2.93
2022-08-05T21:08:42.086Z,3.20
2022-08-05T21:11:11.953Z,3.03
2022-08-05T21:13:55.624Z,3.03
2022-08-05T21:16:29.084Z,2.97
2022-08-05T21:19:00.489Z,3.20
2022-08-05T21:21:39.165Z,3.10
2022-08-05T21:24:13.211Z,2.87
2022-08-05T21:26:41.247Z,3.17
2022-08-05T21:29:10.061Z,2.87
2022-08-05T21:31:40.937Z,2.80
2022-08-05T21:34:08.486Z,3.23
2022-08-05T21:36:37.209Z,2.90
2022-08-05T21:39:03.895Z,2.93
2022-08-05T21:41:34.310Z,3.10
2022-08-05T21:44:04.405Z,3.10
2022-08-05T21:46:34.326Z,2.77
2022-08-05T21:49:01.318Z,3.20
2022-08-05T21:52:22.856Z,3.20
2022-08-05T21:54:14.380Z,2.80
2022-08-05T21:56:44.278Z,2.80
2022-08-05T21:59:24.025Z,2.97
2022-08-05T22:01:51.871Z,2.83
2022-08-05T22:04:21.235Z,2.70
2022-08-05T22:06:52.175Z,3.10
2022-08-05T22:09:20.790Z,2.63
2022-08-05T22:11:48.316Z,3.13
2022-08-05T22:14:33.491Z,2.63
2022-08-05T22:17:04.896Z,3.00
2022-08-05T22:20:00.976Z,3.07
2022-08-05T22:22:27.163Z,3.10
2022-08-05T22:25:21.035Z,3.30
2022-08-05T22:28:09.354Z,2.73
2022-08-05T22:30:44.230Z,2.70
2022-08-05T22:33:57.699Z,2.97
2022-08-05T22:36:14.743Z,2.60
2022-08-05T22:38:42.805Z,3.03
2022-08-05T22:41:10.187Z,2.40
2022-08-05T22:43:38.098Z,2.60
2022-08-05T22:46:12.170Z,3.07
2022-08-05T22:48:47.519Z,2.83
2022-08-05T22:51:15.726Z,2.63
2022-08-05T22:53:50.238Z,2.83
2022-08-05T22:56:17.185Z,2.70
2022-08-05T22:58:56.489Z,2.53
2022-08-05T23:01:23.540Z,2.70
2022-08-05T23:04:10.080Z,2.50
2022-08-05T23:06:36.760Z,3.17
2022-08-05T23:09:14.670Z,2.80
2022-08-05T23:11:50.451Z,2.67
2022-08-05T23:14:22.696Z,2.53
2022-08-05T23:17:23.895Z,2.67
2022-08-05T23:19:56.372Z,2.73
2022-08-05T23:22:27.452Z,2.60
2022-08-05T23:24:54.401Z,2.50
2022-08-05T23:27:20.980Z,2.63
2022-08-05T23:29:50.613Z,2.80
2022-08-05T23:32:17.373Z,2.77
2022-08-05T23:34:49.717Z,2.90
2022-08-05T23:37:17.521Z,3.00
2022-08-05T23:39:53.825Z,2.63
2022-08-05T23:42:29.349Z,2.90
2022-08-05T23:44:56.621Z,2.80
2022-08-05T23:47:25.067Z,2.70
2022-08-05T23:49:51.988Z,3.03
2022-08-05T23:52:32.720Z,2.77
2022-08-05T23:55:06.973Z,2.70
2022-08-05T23:57:33.905Z,3.00
